createdAt,value
2023-05-23T00:00:14.458Z,12.80
2023-05-23T00:02:43.686Z,12.60
2023-05-23T00:05:11.275Z,12.60
2023-05-23T00:07:38.662Z,12.60
2023-05-23T00:10:06.389Z,13.80
2023-05-23T00:12:33.669Z,12.50
2023-05-23T00:15:01.511Z,13.40
2023-05-23T00:17:28.918Z,12.60
2023-05-23T00:19:56.344Z,12.50
2023-05-23T00:22:23.768Z,12.40
2023-05-23T00:24:51.166Z,12.40
2023-05-23T00:27:18.517Z,12.40
2023-05-23T00:29:45.877Z,12.30
2023-05-23T00:32:13.193Z,12.40
2023-05-23T00:34:40.988Z,12.30
2023-05-23T00:37:08.456Z,12.40
2023-05-23T00:39:35.827Z,12.40
2023-05-23T00:42:05.682Z,12.20
2023-05-23T00:44:33.021Z,12.20
2023-05-23T00:47:00.723Z,12.20
2023-05-23T00:49:28.508Z,12.10
2023-05-23T00:51:56.243Z,12.70
2023-05-23T00:54:27.291Z,12.20
2023-05-23T00:56:55.402Z,12.40
2023-05-23T00:59:25.352Z,12.20
2023-05-23T01:01:55.844Z,12.00
2023-05-23T01:04:27.085Z,12.10
2023-05-23T01:06:55.848Z,12.30
2023-05-23T01:09:27.535Z,12.00
2023-05-23T01:12:34.226Z,12.00
2023-05-23T01:15:06.540Z,11.90
2023-05-23T01:17:42.126Z,11.80
2023-05-23T01:20:34.677Z,12.10
2023-05-23T01:23:11.913Z,11.90
2023-05-23T01:25:49.681Z,11.90
2023-05-23T01:28:21.666Z,11.80
2023-05-23T01:30:53.122Z,11.80
2023-05-23T01:33:22.320Z,11.80
2023-05-23T01:35:50.337Z,11.70
2023-05-23T01:38:17.943Z,11.70
2023-05-23T01:40:45.405Z,11.70
2023-05-23T01:43:13.207Z,11.70
2023-05-23T01:45:41.147Z,11.70
2023-05-23T01:48:11.900Z,11.60
2023-05-23T01:50:39.817Z,11.70
2023-05-23T01:53:10.040Z,11.70
2023-05-23T01:55:37.673Z,12.00
2023-05-23T01:58:05.984Z,11.70
2023-05-23T02:00:33.494Z,11.80
2023-05-23T02:03:01.173Z,11.60
2023-05-23T02:05:28.790Z,11.30
2023-05-23T02:07:59.056Z,12.20
2023-05-23T02:10:26.794Z,11.70
2023-05-23T02:12:54.322Z,12.10
2023-05-23T02:15:21.804Z,12.10
2023-05-23T02:17:49.704Z,12.30
2023-05-23T02:20:19.270Z,12.00
2023-05-23T02:22:49.091Z,12.00
2023-05-23T02:25:19.602Z,12.00
2023-05-23T02:27:47.293Z,12.00
2023-05-23T02:30:16.539Z,12.10
2023-05-23T02:32:44.465Z,12.00
2023-05-23T02:35:12.417Z,12.00
2023-05-23T02:37:40.062Z,12.00
2023-05-23T02:40:08.577Z,11.80
2023-05-23T02:42:37.025Z,11.70
2023-05-23T02:45:04.951Z,11.90
2023-05-23T02:47:35.711Z,12.20
2023-05-23T02:55:31.918Z,11.70
2023-05-23T02:57:59.561Z,11.70
2023-05-23T03:00:28.367Z,11.70
2023-05-23T03:03:24.601Z,12.00
2023-05-23T03:05:52.353Z,10.20
2023-05-23T03:08:19.885Z,11.60
2023-05-23T03:10:50.317Z,11.90
2023-05-23T03:13:18.814Z,11.90
2023-05-23T03:15:46.554Z,11.90
2023-05-23T03:18:14.183Z,12.20
2023-05-23T03:20:43.940Z,11.90
2023-05-23T03:23:13.854Z,11.80
2023-05-23T03:25:43.176Z,12.20
2023-05-23T03:28:12.249Z,12.00
2023-05-23T03:30:42.706Z,11.90
2023-05-23T03:33:11.274Z,12.00
2023-05-23T03:35:40.594Z,12.20
2023-05-23T03:38:08.546Z,11.80
2023-05-23T03:40:39.392Z,12.10
2023-05-23T03:43:08.506Z,12.10
2023-05-23T03:45:40.735Z,11.80
2023-05-23T03:48:13.537Z,11.70
2023-05-23T03:50:42.535Z,11.70
2023-05-23T03:53:13.418Z,11.70
2023-05-23T03:55:41.082Z,11.60
2023-05-23T03:58:08.691Z,11.60
2023-05-23T04:00:36.676Z,11.60
2023-05-23T04:03:17.379Z,11.70
2023-05-23T04:05:46.235Z,11.40
2023-05-23T04:08:17.492Z,11.40
2023-05-23T04:10:46.072Z,11.40
2023-05-23T04:13:13.517Z,11.80
2023-05-23T04:15:41.669Z,11.90
2023-05-23T04:18:15.447Z,11.30
2023-05-23T04:20:44.912Z,11.40
2023-05-23T04:23:14.847Z,11.30
2023-05-23T04:25:46.070Z,11.00
2023-05-23T04:28:27.808Z,11.80
2023-05-23T04:30:56.430Z,11.20
2023-05-23T04:33:28.248Z,11.20
2023-05-23T04:35:56.425Z,11.10
2023-05-23T04:38:33.562Z,11.40
2023-05-23T04:41:02.062Z,11.20
2023-05-23T04:43:48.130Z,11.50
2023-05-23T04:46:27.391Z,11.40
2023-05-23T04:49:16.757Z,12.50
2023-05-23T04:51:55.725Z,11.10
2023-05-23T04:54:28.527Z,11.50
2023-05-23T04:59:35.119Z,11.40
2023-05-23T05:02:06.852Z,11.40
2023-05-23T05:04:36.500Z,11.50
2023-05-23T05:07:06.580Z,11.50
2023-05-23T05:09:34.928Z,11.50
2023-05-23T05:12:02.797Z,11.50
2023-05-23T05:14:31.244Z,11.50
2023-05-23T05:16:59.236Z,11.80
2023-05-23T05:19:33.990Z,11.80
2023-05-23T05:22:02.815Z,12.20
2023-05-23T05:24:32.915Z,11.70
2023-05-23T05:27:00.393Z,11.70
2023-05-23T05:31:56.301Z,11.70
2023-05-23T05:34:23.891Z,11.60
2023-05-23T05:36:56.189Z,11.70
2023-05-23T05:39:26.550Z,11.70
2023-05-23T05:41:56.321Z,11.80
2023-05-23T05:44:24.128Z,11.60
2023-05-23T05:46:52.416Z,11.80
2023-05-23T05:49:20.364Z,11.80
2023-05-23T05:51:53.689Z,11.90
2023-05-23T05:54:31.587Z,12.00
2023-05-23T05:59:27.754Z,12.00
2023-05-23T06:01:55.890Z,12.00
2023-05-23T06:04:23.658Z,12.00
2023-05-23T06:06:53.039Z,12.00
2023-05-23T06:09:20.831Z,12.10
2023-05-23T06:11:48.535Z,12.30
2023-05-23T06:14:16.260Z,12.20
2023-05-23T06:16:48.317Z,12.10
2023-05-23T06:19:16.129Z,12.20
2023-05-23T06:21:46.866Z,12.20
2023-05-23T06:24:15.912Z,12.40
2023-05-23T06:26:59.371Z,12.50
2023-05-23T06:29:31.421Z,12.50
2023-05-23T06:31:59.610Z,12.60
2023-05-23T06:35:27.516Z,12.70
2023-05-23T06:39:05.013Z,12.60
2023-05-23T06:41:32.495Z,12.70
2023-05-23T06:47:14.389Z,12.70
2023-05-23T06:49:47.258Z,12.70
2023-05-23T06:57:30.773Z,12.80
2023-05-23T07:03:15.330Z,13.00
2023-05-23T07:08:41.497Z,13.40
2023-05-23T07:11:10.518Z,13.60
2023-05-23T07:13:41.523Z,14.00
2023-05-23T07:16:14.682Z,13.90
2023-05-23T07:18:53.434Z,14.10
2023-05-23T07:24:00.630Z,14.20
2023-05-23T07:26:32.267Z,14.40
2023-05-23T07:29:11.380Z,13.80
2023-05-23T07:31:40.865Z,14.20
2023-05-23T07:34:19.459Z,14.30
2023-05-23T07:36:59.731Z,14.40
2023-05-23T07:39:32.055Z,14.50
2023-05-23T07:42:01.763Z,14.70
2023-05-23T07:44:29.382Z,14.80
2023-05-23T07:47:06.465Z,15.00
2023-05-23T07:49:34.511Z,15.10
2023-05-23T07:52:02.482Z,15.40
2023-05-23T07:54:33.810Z,15.10
2023-05-23T07:57:04.911Z,15.00
2023-05-23T07:59:38.425Z,15.40
2023-05-23T08:02:25.944Z,15.20
2023-05-23T08:04:53.780Z,15.00
2023-05-23T08:07:22.562Z,15.20
2023-05-23T08:10:01.052Z,15.30
2023-05-23T08:12:32.659Z,15.30
2023-05-23T08:15:13.386Z,15.50
2023-05-23T08:17:45.861Z,15.60
2023-05-23T08:20:13.464Z,15.60
2023-05-23T08:22:41.649Z,15.70
2023-05-23T08:25:10.878Z,15.70
2023-05-23T08:27:41.276Z,15.70
2023-05-23T08:30:25.533Z,15.60
2023-05-23T08:32:54.233Z,15.70
2023-05-23T08:37:54.246Z,15.80
2023-05-23T08:40:25.388Z,15.90
2023-05-23T08:43:02.992Z,16.00
2023-05-23T08:45:30.654Z,16.00
2023-05-23T08:48:01.334Z,16.10
2023-05-23T08:50:30.872Z,16.40
2023-05-23T08:52:59.510Z,16.20
2023-05-23T08:55:33.060Z,16.30
2023-05-23T09:00:53.810Z,16.40
2023-05-23T09:03:23.258Z,16.40
2023-05-23T09:06:09.942Z,16.50
2023-05-23T09:08:42.054Z,16.40
2023-05-23T09:11:13.563Z,16.30
2023-05-23T09:13:41.923Z,16.40
2023-05-23T09:16:12.830Z,16.50
2023-05-23T09:18:45.330Z,16.20
2023-05-23T09:21:17.735Z,16.20
2023-05-23T09:24:05.368Z,16.30
2023-05-23T09:26:35.180Z,16.30
2023-05-23T09:29:09.179Z,16.20
2023-05-23T09:31:37.195Z,16.40
2023-05-23T09:34:06.936Z,16.40
2023-05-23T09:36:43.267Z,16.50
2023-05-23T09:39:12.335Z,16.50
2023-05-23T09:41:41.567Z,16.50
2023-05-23T09:44:09.818Z,16.50
2023-05-23T09:46:41.393Z,16.50
2023-05-23T09:49:22.515Z,16.40
2023-05-23T09:52:00.935Z,16.60
2023-05-23T09:54:28.681Z,16.60
2023-05-23T09:57:01.440Z,16.80
2023-05-23T09:59:32.284Z,16.80
2023-05-23T10:02:02.506Z,17.00
2023-05-23T10:04:34.045Z,17.10
2023-05-23T10:07:17.521Z,17.30
2023-05-23T10:09:56.367Z,17.40
2023-05-23T10:12:40.075Z,17.50
2023-05-23T10:15:09.921Z,17.60
2023-05-23T10:17:57.552Z,17.60
2023-05-23T10:20:29.438Z,17.60
2023-05-23T10:23:01.665Z,17.50
2023-05-23T10:25:29.734Z,17.40
2023-05-23T10:28:00.896Z,17.60
2023-05-23T10:30:30.141Z,17.60
2023-05-23T10:32:59.074Z,17.80
2023-05-23T10:36:00.204Z,17.90
2023-05-23T10:38:51.405Z,17.90
2023-05-23T10:41:26.293Z,18.10
2023-05-23T10:44:02.809Z,18.00
2023-05-23T10:46:52.482Z,18.20
2023-05-23T10:49:20.921Z,18.40
2023-05-23T10:51:54.790Z,18.60
2023-05-23T10:54:22.387Z,18.90
2023-05-23T10:57:06.023Z,19.10
2023-05-23T10:59:33.504Z,19.20
2023-05-23T11:04:30.648Z,19.30
2023-05-23T11:06:58.949Z,19.50
2023-05-23T11:09:26.332Z,19.70
2023-05-23T11:12:05.288Z,19.80
2023-05-23T11:14:33.384Z,20.20
2023-05-23T11:17:14.904Z,20.10
2023-05-23T11:20:07.343Z,20.20
2023-05-23T11:22:36.050Z,20.80
2023-05-23T11:25:10.542Z,20.30
2023-05-23T11:27:41.001Z,20.50
2023-05-23T11:30:11.090Z,20.60
2023-05-23T11:32:38.765Z,20.60
2023-05-23T11:35:11.399Z,20.90
2023-05-23T11:37:42.538Z,21.60
2023-05-23T11:40:33.132Z,21.20
2023-05-23T11:43:02.274Z,21.50
2023-05-23T11:45:32.162Z,21.60
2023-05-23T11:48:04.532Z,21.90
2023-05-23T11:50:32.013Z,22.40
2023-05-23T11:53:00.424Z,22.50
2023-05-23T11:55:27.868Z,22.50
2023-05-23T11:57:57.601Z,22.40
2023-05-23T12:00:25.180Z,22.40
2023-05-23T12:02:52.636Z,22.30
2023-05-23T12:05:20.101Z,22.50
2023-05-23T12:07:48.987Z,22.80
2023-05-23T12:10:17.158Z,22.90
2023-05-23T12:12:45.114Z,22.90
2023-05-23T12:15:13.396Z,22.50
2023-05-23T12:17:47.277Z,22.10
2023-05-23T12:20:15.260Z,21.60
2023-05-23T12:22:43.983Z,21.90
2023-05-23T12:25:11.696Z,22.30
2023-05-23T12:27:41.732Z,22.60
2023-05-23T12:30:16.210Z,23.10
2023-05-23T12:32:46.630Z,23.30
2023-05-23T12:35:16.145Z,23.50
2023-05-23T12:37:47.240Z,23.80
2023-05-23T12:40:19.366Z,24.00
2023-05-23T12:42:57.008Z,24.00
2023-05-23T12:45:34.356Z,23.70
2023-05-23T12:48:02.495Z,23.70
2023-05-23T12:50:31.103Z,23.70
2023-05-23T12:52:58.952Z,23.50
2023-05-23T12:55:27.678Z,23.10
2023-05-23T12:57:55.072Z,23.10
2023-05-23T13:00:22.729Z,23.40
2023-05-23T13:02:50.619Z,24.00
2023-05-23T13:05:18.196Z,24.20
2023-05-23T13:07:45.533Z,24.30
2023-05-23T13:10:13.890Z,24.00
2023-05-23T13:12:42.416Z,24.00
2023-05-23T13:15:10.541Z,23.90
2023-05-23T13:17:38.028Z,23.60
2023-05-23T13:20:06.841Z,23.30
2023-05-23T13:22:34.613Z,23.20
2023-05-23T13:25:02.020Z,22.90
2023-05-23T13:27:29.647Z,23.10
2023-05-23T13:29:57.088Z,23.10
2023-05-23T13:32:24.490Z,22.90
2023-05-23T13:34:51.961Z,22.90
2023-05-23T13:37:19.433Z,22.90
2023-05-23T13:39:46.959Z,22.80
2023-05-23T13:42:14.299Z,22.70
2023-05-23T13:44:41.730Z,23.20
2023-05-23T13:47:13.631Z,22.80
2023-05-23T13:49:43.267Z,23.00
2023-05-23T13:52:12.323Z,23.50
2023-05-23T13:54:41.025Z,23.80
2023-05-23T13:57:09.453Z,24.20
2023-05-23T13:59:36.946Z,23.90
2023-05-23T14:02:04.537Z,23.80
2023-05-23T14:04:33.094Z,23.90
2023-05-23T14:07:00.411Z,23.80
2023-05-23T14:09:28.799Z,23.60
2023-05-23T14:11:56.500Z,23.30
2023-05-23T14:14:23.951Z,22.90
2023-05-23T14:16:52.076Z,22.50
2023-05-23T14:19:20.007Z,22.40
2023-05-23T14:21:48.909Z,22.30
2023-05-23T14:26:44.093Z,22.50
2023-05-23T14:29:12.612Z,22.70
2023-05-23T14:31:40.089Z,22.80
2023-05-23T14:34:07.717Z,22.70
2023-05-23T14:36:36.978Z,23.10
2023-05-23T14:39:05.860Z,23.10
2023-05-23T14:41:34.120Z,23.00
2023-05-23T14:44:03.534Z,23.10
2023-05-23T14:46:31.276Z,23.30
2023-05-23T14:48:59.662Z,23.60
2023-05-23T14:51:43.223Z,23.80
2023-05-23T14:54:15.946Z,24.00
2023-05-23T14:56:43.541Z,24.00
2023-05-23T14:59:11.169Z,23.30
2023-05-23T15:01:40.378Z,23.10
2023-05-23T15:04:09.589Z,22.80
2023-05-23T15:06:40.448Z,22.80
2023-05-23T15:09:09.471Z,23.30
2023-05-23T15:11:38.942Z,23.90
2023-05-23T15:14:06.676Z,24.40
2023-05-23T15:16:37.789Z,25.00
2023-05-23T15:19:05.925Z,25.50
2023-05-23T15:21:34.186Z,25.70
2023-05-23T15:24:01.954Z,25.50
2023-05-23T15:26:29.616Z,25.20
2023-05-23T15:28:57.058Z,24.90
2023-05-23T15:31:24.614Z,24.80
2023-05-23T15:33:52.149Z,25.20
2023-05-23T15:36:19.509Z,25.60
2023-05-23T15:38:46.897Z,26.00
2023-05-23T15:41:14.464Z,26.00
2023-05-23T15:43:41.912Z,26.10
2023-05-23T15:46:09.523Z,26.00
2023-05-23T15:48:36.990Z,25.50
2023-05-23T15:51:04.598Z,25.30
2023-05-23T15:53:34.544Z,25.60
2023-05-23T15:56:05.119Z,26.00
2023-05-23T15:58:32.971Z,26.40
2023-05-23T16:01:00.795Z,26.30
2023-05-23T16:03:28.347Z,26.50
2023-05-23T16:05:55.952Z,26.60
2023-05-23T16:08:23.453Z,26.60
2023-05-23T16:10:51.095Z,26.70
2023-05-23T16:13:20.247Z,26.40
2023-05-23T16:15:47.967Z,25.90
2023-05-23T16:18:18.601Z,25.40
2023-05-23T16:20:46.286Z,25.40
2023-05-23T16:23:15.270Z,25.60
2023-05-23T16:25:43.087Z,25.90
2023-05-23T16:28:11.398Z,26.40
2023-05-23T16:30:38.941Z,26.10
2023-05-23T16:33:06.529Z,25.60
2023-05-23T16:35:34.359Z,25.60
2023-05-23T16:38:01.850Z,24.90
2023-05-23T16:40:29.379Z,24.70
2023-05-23T16:42:57.157Z,24.90
2023-05-23T16:45:25.926Z,25.50
2023-05-23T16:47:53.506Z,25.70
2023-05-23T16:50:21.065Z,25.20
2023-05-23T16:52:48.360Z,24.40
2023-05-23T16:55:15.728Z,24.30
2023-05-23T16:57:43.059Z,23.60
2023-05-23T17:00:10.995Z,23.00
2023-05-23T17:02:40.222Z,22.30
2023-05-23T17:05:11.906Z,22.00
2023-05-23T17:07:40.606Z,21.80
2023-05-23T17:10:09.071Z,22.20
2023-05-23T17:12:36.465Z,23.00
2023-05-23T17:15:04.128Z,23.10
2023-05-23T17:17:31.563Z,23.10
2023-05-23T17:19:59.257Z,23.10
2023-05-23T17:22:27.037Z,23.50
2023-05-23T17:24:54.519Z,23.90
2023-05-23T17:27:21.894Z,23.60
2023-05-23T17:29:50.672Z,23.30
2023-05-23T17:32:20.064Z,22.80
2023-05-23T17:37:15.563Z,22.10
2023-05-23T17:39:43.495Z,21.90
2023-05-23T17:42:11.189Z,21.80
2023-05-23T17:44:38.798Z,21.90
2023-05-23T17:47:07.494Z,22.20
2023-05-23T17:49:35.340Z,22.70
2023-05-23T17:52:05.913Z,22.80
2023-05-23T17:54:33.254Z,22.70
2023-05-23T17:57:00.668Z,22.60
2023-05-23T17:59:30.425Z,22.40
2023-05-23T18:01:57.920Z,22.10
2023-05-23T18:04:25.819Z,21.70
2023-05-23T18:06:53.354Z,21.20
2023-05-23T18:09:21.219Z,21.00
2023-05-23T18:11:48.574Z,20.80
2023-05-23T18:14:16.062Z,20.80
2023-05-23T18:16:43.627Z,21.00
2023-05-23T18:19:11.311Z,20.90
2023-05-23T18:21:38.742Z,20.90
2023-05-23T18:24:06.605Z,20.70
2023-05-23T18:26:40.203Z,20.50
2023-05-23T18:31:36.471Z,20.70
2023-05-23T18:34:05.965Z,20.50
2023-05-23T18:36:33.649Z,20.40
2023-05-23T18:39:01.426Z,20.50
2023-05-23T18:41:28.814Z,20.30
2023-05-23T18:43:56.586Z,19.90
2023-05-23T18:46:25.719Z,19.90
2023-05-23T18:48:53.418Z,19.90
2023-05-23T18:51:21.085Z,19.90
2023-05-23T18:53:48.553Z,20.00
2023-05-23T18:56:16.460Z,20.00
2023-05-23T18:58:46.675Z,19.90
2023-05-23T19:01:16.885Z,19.70
2023-05-23T19:03:45.935Z,19.70
2023-05-23T19:06:14.576Z,19.60
2023-05-23T19:08:43.003Z,19.50
2023-05-23T19:11:10.834Z,19.30
2023-05-23T19:13:38.294Z,19.30
2023-05-23T19:16:06.010Z,19.00
2023-05-23T19:18:33.531Z,18.70
2023-05-23T19:23:29.478Z,18.30
2023-05-23T19:25:57.262Z,18.20
2023-05-23T19:28:24.802Z,18.10
2023-05-23T19:30:54.773Z,18.00
2023-05-23T19:33:22.945Z,17.80
2023-05-23T19:35:51.577Z,18.00
2023-05-23T19:38:19.442Z,17.50
2023-05-23T19:40:47.735Z,17.40
2023-05-23T19:43:15.858Z,17.50
2023-05-23T19:45:44.698Z,17.20
2023-05-23T19:50:43.684Z,16.90
2023-05-23T19:53:11.796Z,16.80
2023-05-23T19:55:44.115Z,16.60
2023-05-23T19:58:22.317Z,16.40
2023-05-23T20:00:49.931Z,16.40
2023-05-23T20:03:21.605Z,16.20
2023-05-23T20:08:50.000Z,16.00
2023-05-23T20:11:33.397Z,15.90
2023-05-23T20:14:37.858Z,15.80
2023-05-23T20:17:16.039Z,15.70
2023-05-23T20:20:04.620Z,15.50
2023-05-23T20:22:34.254Z,15.40
2023-05-23T20:26:16.431Z,15.40
2023-05-23T20:28:48.842Z,15.40
2023-05-23T20:31:17.822Z,15.10
2023-05-23T20:33:49.871Z,15.30
2023-05-23T20:36:28.385Z,14.90
2023-05-23T20:39:06.751Z,15.00
2023-05-23T20:41:34.711Z,15.10
2023-05-23T20:44:17.096Z,14.90
2023-05-23T20:46:45.033Z,14.80
2023-05-23T20:49:14.348Z,14.80
2023-05-23T20:52:06.123Z,14.60
2023-05-23T20:54:48.297Z,14.60
2023-05-23T20:57:16.453Z,14.60
2023-05-23T20:59:44.382Z,14.60
2023-05-23T21:02:13.555Z,14.50
2023-05-23T21:04:47.430Z,14.10
2023-05-23T21:07:24.986Z,14.10
2023-05-23T21:10:01.651Z,14.30
2023-05-23T21:12:35.280Z,14.30
2023-05-23T21:15:12.885Z,14.20
2023-05-23T21:17:46.858Z,14.20
2023-05-23T21:20:17.285Z,14.20
2023-05-23T21:22:53.852Z,14.20
2023-05-23T21:25:21.586Z,14.10
2023-05-23T21:28:19.035Z,14.10
2023-05-23T21:30:53.925Z,14.10
2023-05-23T21:33:26.395Z,14.10
2023-05-23T21:36:04.486Z,14.00
2023-05-23T21:38:50.461Z,15.40
2023-05-23T21:41:18.232Z,13.80
2023-05-23T21:43:45.912Z,14.00
2023-05-23T21:46:13.869Z,13.90
2023-05-23T21:48:41.415Z,13.80
2023-05-23T21:51:08.794Z,13.80
2023-05-23T21:53:36.543Z,13.80
2023-05-23T21:56:04.215Z,13.80
2023-05-23T21:58:31.795Z,13.80
2023-05-23T22:00:59.329Z,13.80
2023-05-23T22:03:27.457Z,13.70
2023-05-23T22:05:56.490Z,13.90
2023-05-23T22:08:24.115Z,13.70
2023-05-23T22:10:52.760Z,13.70
2023-05-23T22:13:21.528Z,13.60
2023-05-23T22:15:49.305Z,13.60
2023-05-23T22:18:19.777Z,13.50
2023-05-23T22:20:49.436Z,13.50
2023-05-23T22:23:26.098Z,13.50
2023-05-23T22:25:54.055Z,13.60
2023-05-23T22:28:36.307Z,13.30
2023-05-23T22:31:08.481Z,13.30
2023-05-23T22:36:09.908Z,13.10
2023-05-23T22:38:37.863Z,13.10
2023-05-23T22:43:33.403Z,13.00
2023-05-23T22:46:03.786Z,13.10
2023-05-23T22:48:34.004Z,13.00
2023-05-23T22:51:03.042Z,13.00
2023-05-23T22:53:30.570Z,12.90
2023-05-23T22:56:02.968Z,12.90
2023-05-23T22:58:31.568Z,13.40
2023-05-23T23:00:59.084Z,12.80
2023-05-23T23:03:26.889Z,12.80
2023-05-23T23:05:54.715Z,12.80
2023-05-23T23:08:43.075Z,12.80
2023-05-23T23:11:33.881Z,12.70
2023-05-23T23:14:02.284Z,12.70
2023-05-23T23:16:33.647Z,12.60
2023-05-23T23:21:49.495Z,12.60
2023-05-23T23:24:17.922Z,12.60
2023-05-23T23:26:45.685Z,13.40
2023-05-23T23:29:13.336Z,12.50
2023-05-23T23:31:51.320Z,12.60
2023-05-23T23:34:19.108Z,12.60
2023-05-23T23:36:50.323Z,12.40
2023-05-23T23:39:17.901Z,12.50
2023-05-23T23:41:45.614Z,12.50
2023-05-23T23:44:13.112Z,12.40
2023-05-23T23:46:40.873Z,12.70
2023-05-23T23:49:08.496Z,12.40
2023-05-23T23:51:38.909Z,12.40
2023-05-23T23:54:06.824Z,12.40
2023-05-23T23:59:14.939Z,12.50
